createdAt,value
2023-02-18T00:01:36.181Z,101486.28
2023-02-18T00:04:03.984Z,101478.31
2023-02-18T00:06:34.043Z,101483.63
2023-02-18T00:09:06.186Z,101473.00
2023-02-18T00:11:37.872Z,101480.13
2023-02-18T00:14:08.341Z,101485.44
2023-02-18T00:16:36.445Z,101473.84
2023-02-18T00:19:11.780Z,101479.81
2023-02-18T00:21:39.682Z,101464.84
2023-02-18T00:24:10.734Z,101475.34
2023-02-18T00:26:38.627Z,101472.56
2023-02-18T00:29:06.252Z,101465.34
2023-02-18T00:31:36.674Z,101469.72
2023-02-18T00:34:05.593Z,101462.59
2023-02-18T00:36:33.221Z,101463.44
2023-02-18T00:39:03.869Z,101449.19
2023-02-18T00:41:33.796Z,101441.97
2023-02-18T00:44:03.476Z,101438.97
2023-02-18T00:46:31.894Z,101441.63
2023-02-18T00:49:02.118Z,101434.38
2023-02-18T00:51:29.876Z,101439.63
2023-02-18T00:54:00.512Z,101444.81
2023-02-18T00:56:28.440Z,101433.00
2023-02-18T00:58:58.548Z,101439.03
2023-02-18T01:01:26.247Z,101430.38
2023-02-18T01:03:53.826Z,101424.97
2023-02-18T01:06:22.801Z,101425.72
2023-02-18T01:08:50.576Z,101429.00
2023-02-18T01:11:18.920Z,101429.09
2023-02-18T01:13:47.296Z,101424.19
2023-02-18T01:16:17.954Z,101432.03
2023-02-18T01:18:47.548Z,101420.56
2023-02-18T01:21:15.246Z,101423.94
2023-02-18T01:23:43.912Z,101427.31
2023-02-18T01:26:12.466Z,101430.63
2023-02-18T01:28:40.770Z,101426.88
2023-02-18T01:31:12.887Z,101418.81
2023-02-18T01:33:42.860Z,101408.06
2023-02-18T01:36:12.938Z,101420.25
2023-02-18T01:38:41.057Z,101419.31
2023-02-18T01:41:09.448Z,101415.69
2023-02-18T01:43:37.969Z,101412.78
2023-02-18T01:46:14.855Z,101409.91
2023-02-18T01:48:52.434Z,101407.84
2023-02-18T01:51:25.783Z,101402.44
2023-02-18T01:53:57.647Z,101401.59
2023-02-18T01:56:30.876Z,101392.53
2023-02-18T01:59:03.358Z,101398.06
2023-02-18T02:01:33.396Z,101397.59
2023-02-18T02:04:04.335Z,101390.59
2023-02-18T02:06:32.844Z,101394.84
2023-02-18T02:09:07.493Z,101386.88
2023-02-18T02:11:49.290Z,101393.53
2023-02-18T02:14:26.847Z,101380.81
2023-02-18T02:17:03.779Z,101378.06
2023-02-18T02:20:11.743Z,101360.56
2023-02-18T02:23:15.770Z,101360.44
2023-02-18T02:26:07.728Z,101368.16
2023-02-18T02:29:01.772Z,101364.88
2023-02-18T02:32:00.651Z,101361.91
2023-02-18T02:34:56.547Z,101360.09
2023-02-18T02:37:34.905Z,101347.84
2023-02-18T02:40:14.437Z,101346.88
2023-02-18T02:42:51.962Z,101334.34
2023-02-18T02:45:30.063Z,101338.59
2023-02-18T02:48:09.634Z,101333.25
2023-02-18T02:50:46.385Z,101330.81
2023-02-18T02:53:20.209Z,101323.69
2023-02-18T02:55:48.778Z,101322.22
2023-02-18T02:58:20.206Z,101312.44
2023-02-18T03:01:02.233Z,101306.28
2023-02-18T03:03:58.874Z,101304.34
2023-02-18T03:07:04.303Z,101293.38
2023-02-18T03:09:44.969Z,101280.19
2023-02-18T03:12:21.777Z,101271.47
2023-02-18T03:14:59.449Z,101269.53
2023-02-18T03:17:31.297Z,101270.28
2023-02-18T03:20:09.208Z,101264.97
2023-02-18T03:22:41.694Z,101261.56
2023-02-18T03:25:10.164Z,101252.50
2023-02-18T03:27:46.023Z,101251.41
2023-02-18T03:30:21.042Z,101246.09
2023-02-18T03:32:52.975Z,101231.38
2023-02-18T03:35:22.861Z,101233.06
2023-02-18T03:38:02.815Z,101233.53
2023-02-18T03:40:32.883Z,101229.91
2023-02-18T03:43:03.264Z,101225.44
2023-02-18T03:45:32.855Z,101230.75
2023-02-18T03:48:01.396Z,101213.81
2023-02-18T03:50:29.139Z,101211.78
2023-02-18T03:52:58.421Z,101204.72
2023-02-18T03:55:28.312Z,101205.84
2023-02-18T03:57:56.392Z,101203.19
2023-02-18T04:00:24.786Z,101195.19
2023-02-18T04:02:53.875Z,101198.69
2023-02-18T04:05:21.762Z,101191.56
2023-02-18T04:07:49.783Z,101194.69
2023-02-18T04:10:19.119Z,101188.69
2023-02-18T04:12:47.792Z,101182.38
2023-02-18T04:15:15.588Z,101183.09
2023-02-18T04:17:43.245Z,101178.03
2023-02-18T04:20:11.878Z,101171.59
2023-02-18T04:22:40.239Z,101178.97
2023-02-18T04:25:08.997Z,101174.03
2023-02-18T04:27:41.692Z,101169.78
2023-02-18T04:30:10.090Z,101171.25
2023-02-18T04:32:38.430Z,101164.94
2023-02-18T04:35:06.473Z,101161.31
2023-02-18T04:37:34.374Z,101149.34
2023-02-18T04:40:03.773Z,101160.56
2023-02-18T04:42:31.382Z,101161.56
2023-02-18T04:45:00.858Z,101141.97
2023-02-18T04:47:29.248Z,101148.28
2023-02-18T04:49:57.495Z,101144.63
2023-02-18T04:52:28.766Z,101141.28
2023-02-18T04:54:58.439Z,101135.69
2023-02-18T04:57:26.114Z,101137.78
2023-02-18T04:59:56.785Z,101141.63
2023-02-18T05:02:51.387Z,101134.84
2023-02-18T05:05:19.098Z,101128.31
2023-02-18T05:07:48.216Z,101127.47
2023-02-18T05:13:10.089Z,101136.28
2023-02-18T05:15:37.965Z,101128.19
2023-02-18T05:18:07.768Z,101115.38
2023-02-18T05:20:36.194Z,101099.16
2023-02-18T05:23:04.381Z,101107.13
2023-02-18T05:25:56.658Z,101099.88
2023-02-18T05:28:24.695Z,101094.19
2023-02-18T05:30:55.811Z,101090.81
2023-02-18T05:33:26.872Z,101074.22
2023-02-18T05:35:54.564Z,101059.72
2023-02-18T05:38:22.251Z,101061.06
2023-02-18T05:40:50.869Z,101068.09
2023-02-18T05:43:22.362Z,101059.16
2023-02-18T05:45:50.782Z,101054.81
2023-02-18T05:48:18.410Z,101057.47
2023-02-18T05:50:47.958Z,101059.25
2023-02-18T05:53:17.641Z,101050.06
2023-02-18T05:55:47.543Z,101045.84
2023-02-18T05:58:16.946Z,101038.84
2023-02-18T06:00:45.774Z,101038.44
2023-02-18T06:03:13.381Z,101042.59
2023-02-18T06:08:38.786Z,101026.94
2023-02-18T06:11:06.656Z,101021.38
2023-02-18T06:13:35.266Z,101026.94
2023-02-18T06:18:55.780Z,101023.06
2023-02-18T06:21:48.916Z,101025.78
2023-02-18T06:24:19.970Z,101024.44
2023-02-18T06:26:47.541Z,101027.34
2023-02-18T06:29:15.323Z,101036.19
2023-02-18T06:31:43.879Z,101029.38
2023-02-18T06:34:11.557Z,101019.63
2023-02-18T06:36:39.364Z,101018.66
2023-02-18T06:39:07.873Z,101024.28
2023-02-18T06:41:36.894Z,101017.28
2023-02-18T06:44:05.752Z,101020.22
2023-02-18T06:46:33.507Z,101014.53
2023-02-18T06:49:01.397Z,101024.94
2023-02-18T06:51:29.376Z,100998.94
2023-02-18T06:53:57.051Z,101010.66
2023-02-18T06:56:25.134Z,101011.13
2023-02-18T06:58:54.628Z,101014.63
2023-02-18T07:01:22.866Z,101013.66
2023-02-18T07:03:50.561Z,101017.16
2023-02-18T07:06:18.564Z,101008.38
2023-02-18T07:08:46.195Z,101007.53
2023-02-18T07:11:14.905Z,101004.00
2023-02-18T07:13:42.500Z,101001.31
2023-02-18T07:16:12.012Z,101003.91
2023-02-18T07:18:39.876Z,101006.47
2023-02-18T07:21:07.487Z,101003.00
2023-02-18T07:23:35.439Z,101006.00
2023-02-18T07:26:08.777Z,101004.88
2023-02-18T07:28:36.813Z,101003.19
2023-02-18T07:31:06.218Z,101009.50
2023-02-18T07:33:36.945Z,100999.31
2023-02-18T07:36:07.430Z,100985.03
2023-02-18T07:38:38.794Z,100991.66
2023-02-18T07:41:07.448Z,100999.81
2023-02-18T07:43:35.244Z,101011.25
2023-02-18T07:46:08.207Z,100990.75
2023-02-18T07:48:37.798Z,100995.41
2023-02-18T07:51:06.882Z,101003.91
2023-02-18T07:53:36.753Z,101003.16
2023-02-18T07:56:05.989Z,101001.97
2023-02-18T07:58:36.584Z,101013.19
2023-02-18T08:01:06.785Z,101000.50
2023-02-18T08:03:35.371Z,101012.09
2023-02-18T08:06:06.617Z,101005.09
2023-02-18T08:11:52.914Z,101017.66
2023-02-18T08:14:22.778Z,101014.13
2023-02-18T08:16:56.788Z,101002.56
2023-02-18T08:19:26.873Z,101007.75
2023-02-18T08:21:55.886Z,101005.72
2023-02-18T08:24:23.563Z,101003.16
2023-02-18T08:27:00.259Z,101023.44
2023-02-18T08:29:30.920Z,101023.13
2023-02-18T08:32:03.279Z,101018.28
2023-02-18T08:34:30.966Z,101023.31
2023-02-18T08:36:59.926Z,101026.09
2023-02-18T08:39:33.811Z,101015.41
2023-02-18T08:42:06.895Z,101014.75
2023-02-18T08:44:35.831Z,101011.38
2023-02-18T08:47:04.741Z,101009.13
2023-02-18T08:49:55.801Z,101018.13
2023-02-18T08:52:25.888Z,100998.44
2023-02-18T08:54:53.575Z,100984.16
2023-02-18T08:57:21.249Z,100983.22
2023-02-18T08:59:49.131Z,100982.00
2023-02-18T09:02:17.799Z,100984.97
2023-02-18T09:04:50.771Z,100976.47
2023-02-18T09:07:20.811Z,100978.56
2023-02-18T09:09:49.814Z,100988.81
2023-02-18T09:12:17.447Z,100998.25
2023-02-18T09:14:45.186Z,100998.84
2023-02-18T09:17:13.314Z,100994.63
2023-02-18T09:19:42.804Z,100985.38
2023-02-18T09:22:10.475Z,101003.72
2023-02-18T09:24:39.074Z,100993.91
2023-02-18T09:27:11.202Z,100985.09
2023-02-18T09:29:40.808Z,100992.69
2023-02-18T09:32:13.201Z,101002.28
2023-02-18T09:34:43.537Z,100999.63
2023-02-18T09:37:14.772Z,101002.69
2023-02-18T09:39:43.943Z,101000.13
2023-02-18T09:42:38.475Z,100997.72
2023-02-18T09:45:12.332Z,100996.97
2023-02-18T09:47:43.371Z,101005.97
2023-02-18T09:50:19.337Z,101003.91
2023-02-18T09:52:47.594Z,101002.72
2023-02-18T09:55:19.959Z,101011.19
2023-02-18T09:57:51.428Z,100999.19
2023-02-18T10:00:23.767Z,101003.94
2023-02-18T10:02:56.758Z,101010.09
2023-02-18T10:05:25.596Z,101012.28
2023-02-18T10:07:57.445Z,101011.09
2023-02-18T10:10:38.861Z,101011.09
2023-02-18T10:13:38.707Z,101009.44
2023-02-18T10:16:09.216Z,101008.44
2023-02-18T10:18:42.629Z,101021.75
2023-02-18T10:21:15.830Z,101018.84
2023-02-18T10:23:53.492Z,101022.91
2023-02-18T10:26:22.615Z,101024.16
2023-02-18T10:28:52.495Z,101023.91
2023-02-18T10:31:26.635Z,101023.72
2023-02-18T10:34:01.965Z,101031.91
2023-02-18T10:36:36.670Z,101036.28
2023-02-18T10:39:21.711Z,101038.81
2023-02-18T10:42:02.788Z,101036.72
2023-02-18T10:44:43.836Z,101035.03
2023-02-18T10:47:22.657Z,101030.81
2023-02-18T10:50:01.903Z,101038.28
2023-02-18T10:52:34.768Z,101032.50
2023-02-18T10:55:05.426Z,101033.97
2023-02-18T10:57:34.514Z,101029.72
2023-02-18T11:00:18.002Z,101032.63
2023-02-18T11:02:47.821Z,101031.81
2023-02-18T11:05:24.195Z,101033.84
2023-02-18T11:07:56.787Z,101036.16
2023-02-18T11:10:26.949Z,101033.97
2023-02-18T11:13:01.777Z,101036.63
2023-02-18T11:15:32.012Z,101040.97
2023-02-18T11:18:14.788Z,101041.53
2023-02-18T11:20:42.665Z,101038.94
2023-02-18T11:23:20.252Z,101034.56
2023-02-18T11:25:57.686Z,101045.78
2023-02-18T11:28:34.501Z,101033.84
2023-02-18T11:31:05.151Z,101036.84
2023-02-18T11:33:36.740Z,101044.47
2023-02-18T11:36:19.818Z,101037.81
2023-02-18T11:38:56.737Z,101040.81
2023-02-18T11:41:34.778Z,101046.88
2023-02-18T11:44:03.834Z,101042.03
2023-02-18T11:46:32.960Z,101033.13
2023-02-18T11:49:21.952Z,101038.66
2023-02-18T11:51:54.810Z,101048.69
2023-02-18T11:54:26.584Z,101045.78
2023-02-18T11:56:59.970Z,101039.75
2023-02-18T11:59:28.874Z,101050.63
2023-02-18T12:02:04.708Z,101050.75
2023-02-18T12:04:41.904Z,101054.50
2023-02-18T12:07:20.159Z,101039.03
2023-02-18T12:09:50.794Z,101045.59
2023-02-18T12:12:27.816Z,101041.69
2023-02-18T12:15:02.929Z,101040.38
2023-02-18T12:17:53.812Z,101043.50
2023-02-18T12:20:47.567Z,101043.28
2023-02-18T12:23:24.890Z,101035.53
2023-02-18T12:26:01.795Z,101037.69
2023-02-18T12:28:42.639Z,101039.03
2023-02-18T12:31:26.922Z,101040.00
2023-02-18T12:34:10.177Z,101028.53
2023-02-18T12:36:50.926Z,101033.50
2023-02-18T12:39:31.720Z,101040.00
2023-02-18T12:42:23.574Z,101046.78
2023-02-18T12:45:08.602Z,101040.38
2023-02-18T12:47:50.835Z,101045.31
2023-02-18T12:50:47.885Z,101046.53
2023-02-18T12:53:45.981Z,101046.03
2023-02-18T12:56:48.676Z,101043.63
2023-02-18T12:59:37.078Z,101050.50
2023-02-18T13:02:19.265Z,101060.91
2023-02-18T13:04:59.840Z,101052.69
2023-02-18T13:07:42.510Z,101048.59
2023-02-18T13:13:29.802Z,101050.75
2023-02-18T13:16:01.908Z,101036.63
2023-02-18T13:21:27.278Z,101038.53
2023-02-18T13:24:00.422Z,101042.63
2023-02-18T13:26:32.464Z,101049.03
2023-02-18T13:29:18.781Z,101049.91
2023-02-18T13:32:03.107Z,101047.66
2023-02-18T13:34:40.214Z,101051.44
2023-02-18T13:37:15.818Z,101049.63
2023-02-18T13:39:51.668Z,101064.72
2023-02-18T13:42:38.243Z,101053.25
2023-02-18T13:45:25.925Z,101048.09
2023-02-18T13:47:54.652Z,101053.00
2023-02-18T13:50:29.403Z,101046.69
2023-02-18T13:53:14.901Z,101043.78
2023-02-18T13:55:53.604Z,101043.78
2023-02-18T13:58:23.906Z,101048.75
2023-02-18T14:00:56.612Z,101054.41
2023-02-18T14:03:38.151Z,101043.66
2023-02-18T14:06:18.005Z,101055.13
2023-02-18T14:08:47.787Z,101058.75
2023-02-18T14:11:42.136Z,101052.09
2023-02-18T14:14:41.541Z,101057.28
2023-02-18T14:17:36.796Z,101039.50
2023-02-18T14:20:34.912Z,101053.44
2023-02-18T14:23:02.804Z,101056.94
2023-02-18T14:25:39.216Z,101065.63
2023-02-18T14:28:39.784Z,101057.78
2023-02-18T14:31:29.778Z,101055.88
2023-02-18T14:34:47.197Z,101059.22
2023-02-18T14:37:31.934Z,101055.97
2023-02-18T14:40:16.067Z,101064.56
2023-02-18T14:42:54.340Z,101057.66
2023-02-18T14:45:34.849Z,101056.91
2023-02-18T14:48:26.724Z,101065.72
2023-02-18T14:50:56.549Z,101068.66
2023-02-18T14:53:27.209Z,101069.50
2023-02-18T14:56:00.585Z,101069.50
2023-02-18T14:58:32.980Z,101071.88
2023-02-18T15:01:08.791Z,101070.19
2023-02-18T15:03:36.528Z,101064.28
2023-02-18T15:06:04.398Z,101077.34
2023-02-18T15:08:38.623Z,101065.72
2023-02-18T15:11:09.473Z,101073.47
2023-02-18T15:13:44.140Z,101073.47
2023-02-18T15:16:20.126Z,101073.72
2023-02-18T15:18:52.656Z,101082.53
2023-02-18T15:21:23.404Z,101078.03
2023-02-18T15:23:52.619Z,101069.38
2023-02-18T15:26:22.355Z,101070.91
2023-02-18T15:28:59.828Z,101071.50
2023-02-18T15:31:31.244Z,101073.34
2023-02-18T15:33:59.804Z,101069.47
2023-02-18T15:36:28.192Z,101065.59
2023-02-18T15:38:58.284Z,101072.50
2023-02-18T15:41:26.422Z,101063.78
2023-02-18T15:43:56.553Z,101072.72
2023-02-18T15:46:26.365Z,101069.56
2023-02-18T15:48:57.699Z,101074.31
2023-02-18T15:51:29.706Z,101075.28
2023-02-18T15:54:01.024Z,101074.81
2023-02-18T15:56:33.498Z,101077.47
2023-02-18T15:59:11.059Z,101074.41
2023-02-18T16:01:39.056Z,101072.88
2023-02-18T16:04:09.126Z,101084.69
2023-02-18T16:06:39.037Z,101084.47
2023-02-18T16:09:16.939Z,101089.09
2023-02-18T16:11:48.304Z,101090.78
2023-02-18T16:14:29.464Z,101095.97
2023-02-18T16:17:11.260Z,101090.97
2023-02-18T16:20:02.739Z,101086.88
2023-02-18T16:22:34.423Z,101088.81
2023-02-18T16:25:09.387Z,101094.84
2023-02-18T16:27:46.752Z,101086.16
2023-02-18T16:30:17.860Z,101088.94
2023-02-18T16:32:46.867Z,101089.09
2023-02-18T16:35:16.050Z,101094.97
2023-02-18T16:37:47.850Z,101098.16
2023-02-18T16:40:29.038Z,101096.94
2023-02-18T16:42:59.176Z,101096.09
2023-02-18T16:45:34.725Z,101097.91
2023-02-18T16:48:02.994Z,101094.50
2023-02-18T16:50:34.914Z,101101.41
2023-02-18T16:53:02.480Z,101100.66
2023-02-18T16:55:31.694Z,101107.94
2023-02-18T16:57:59.430Z,101102.84
2023-02-18T17:00:27.146Z,101104.16
2023-02-18T17:02:59.289Z,101095.97
2023-02-18T17:05:29.160Z,101081.44
2023-02-18T17:08:01.001Z,101096.59
2023-02-18T17:10:35.826Z,101094.88
2023-02-18T17:13:04.475Z,101107.69
2023-02-18T17:15:35.430Z,101106.25
2023-02-18T17:18:04.557Z,101124.88
2023-02-18T17:20:33.772Z,101110.72
2023-02-18T17:23:02.827Z,101118.19
2023-02-18T17:25:33.643Z,101122.91
2023-02-18T17:28:02.007Z,101120.38
2023-02-18T17:30:30.207Z,101134.16
2023-02-18T17:33:01.753Z,101132.00
2023-02-18T17:35:30.966Z,101137.88
2023-02-18T17:37:59.950Z,101132.69
2023-02-18T17:40:30.195Z,101134.66
2023-02-18T17:42:58.334Z,101139.97
2023-02-18T17:45:29.671Z,101145.41
2023-02-18T17:47:57.870Z,101149.16
2023-02-18T17:50:25.886Z,101146.25
2023-02-18T17:52:53.696Z,101144.69
2023-02-18T17:55:25.920Z,101152.28
2023-02-18T17:57:55.619Z,101146.38
2023-02-18T18:00:26.267Z,101151.69
2023-02-18T18:02:54.192Z,101153.84
2023-02-18T18:05:24.383Z,101148.78
2023-02-18T18:07:53.107Z,101149.91
2023-02-18T18:10:23.117Z,101150.75
2023-02-18T18:12:51.227Z,101156.91
2023-02-18T18:15:27.468Z,101154.81
2023-02-18T18:17:55.788Z,101155.78
2023-02-18T18:20:26.085Z,101146.13
2023-02-18T18:22:56.104Z,101144.19
2023-02-18T18:25:26.416Z,101150.34
2023-02-18T18:27:54.302Z,101153.13
2023-02-18T18:30:25.675Z,101155.66
2023-02-18T18:32:53.720Z,101160.97
2023-02-18T18:35:25.962Z,101151.31
2023-02-18T18:37:53.792Z,101151.94
2023-02-18T18:40:23.453Z,101157.38
2023-02-18T18:42:51.133Z,101149.50
2023-02-18T18:45:21.871Z,101151.31
2023-02-18T18:47:52.674Z,101152.28
2023-02-18T18:50:21.084Z,101155.78
2023-02-18T18:52:50.658Z,101161.94
2023-02-18T18:55:25.009Z,101161.94
2023-02-18T18:57:53.440Z,101163.41
2023-02-18T19:00:23.965Z,101166.28
2023-02-18T19:02:53.946Z,101163.75
2023-02-18T19:05:26.064Z,101161.25
2023-02-18T19:07:54.222Z,101161.25
2023-02-18T19:10:22.690Z,101162.22
2023-02-18T19:12:51.195Z,101161.94
2023-02-18T19:15:21.507Z,101167.28
2023-02-18T19:17:52.205Z,101161.25
2023-02-18T19:20:23.948Z,101154.25
2023-02-18T19:22:52.032Z,101157.59
2023-02-18T19:25:20.646Z,101154.81
2023-02-18T19:27:49.873Z,101158.59
2023-02-18T19:30:19.396Z,101145.28
2023-02-18T19:32:47.201Z,101141.03
2023-02-18T19:35:14.984Z,101148.06
2023-02-18T19:37:44.177Z,101148.06
2023-02-18T19:40:14.237Z,101153.63
2023-02-18T19:42:42.275Z,101152.78
2023-02-18T19:45:11.126Z,101153.41
2023-02-18T19:47:39.283Z,101149.91
2023-02-18T19:50:10.828Z,101146.38
2023-02-18T19:52:38.516Z,101145.53
2023-02-18T19:55:08.944Z,101137.69
2023-02-18T19:57:36.887Z,101138.66
2023-02-18T20:00:08.376Z,101130.81
2023-02-18T20:02:40.817Z,101135.72
2023-02-18T20:05:11.922Z,101134.19
2023-02-18T20:07:41.378Z,101131.28
2023-02-18T20:10:13.057Z,101120.75
2023-02-18T20:12:41.643Z,101119.78
2023-02-18T20:15:09.770Z,101128.72
2023-02-18T20:17:38.656Z,101120.88
2023-02-18T20:20:07.418Z,101127.03
2023-02-18T20:22:36.087Z,101114.72
2023-02-18T20:25:04.288Z,101114.72
2023-02-18T20:27:34.211Z,101119.19
2023-02-18T20:30:01.928Z,101127.16
2023-02-18T20:32:29.729Z,101118.22
2023-02-18T20:34:57.674Z,101120.88
2023-02-18T20:37:25.565Z,101113.75
2023-02-18T20:39:53.197Z,101113.88
2023-02-18T20:42:20.858Z,101111.22
2023-02-18T20:44:51.511Z,101105.91
2023-02-18T20:47:19.246Z,101105.78
2023-02-18T20:49:48.403Z,101109.41
2023-02-18T20:52:16.606Z,101103.81
2023-02-18T20:54:44.255Z,101101.56
2023-02-18T20:57:12.431Z,101097.19
2023-02-18T20:59:40.072Z,101102.50
2023-02-18T21:02:09.500Z,101105.16
2023-02-18T21:04:38.928Z,101104.94
2023-02-18T21:07:06.675Z,101102.41
2023-02-18T21:09:34.337Z,101097.94
2023-02-18T21:12:03.863Z,101100.31
2023-02-18T21:14:31.521Z,101099.75
2023-02-18T21:16:59.162Z,101101.56
2023-02-18T21:19:28.833Z,101096.34
2023-02-18T21:21:56.854Z,101087.44
2023-02-18T21:24:24.548Z,101092.63
2023-02-18T21:26:53.646Z,101088.97
2023-02-18T21:29:21.384Z,101082.13
2023-02-18T21:31:50.727Z,101086.56
2023-02-18T21:34:19.390Z,101083.06
2023-02-18T21:36:48.414Z,101073.41
2023-02-18T21:39:16.906Z,101064.34
2023-02-18T21:41:44.674Z,101066.25
2023-02-18T21:44:12.258Z,101071.72
2023-02-18T21:46:41.835Z,101072.69
2023-02-18T21:49:12.433Z,101069.19
2023-02-18T21:52:08.385Z,101069.19
2023-02-18T21:54:40.286Z,101075.47
2023-02-18T21:57:10.558Z,101068.34
2023-02-18T21:59:39.125Z,101063.13
2023-02-18T22:02:08.379Z,101062.19
2023-02-18T22:04:37.989Z,101049.75
2023-02-18T22:07:05.689Z,101060.47
2023-02-18T22:09:33.473Z,101057.94
2023-02-18T22:12:03.630Z,101048.16
2023-02-18T22:14:31.448Z,101050.81
2023-02-18T22:16:59.479Z,101043.09
2023-02-18T22:19:27.377Z,101045.78
2023-02-18T22:21:55.559Z,101051.09
2023-02-18T22:24:23.299Z,101041.44
2023-02-18T22:26:52.342Z,101039.72
2023-02-18T22:29:21.869Z,101036.94
2023-02-18T22:31:53.117Z,101028.25
2023-02-18T22:34:21.890Z,101025.56
2023-02-18T22:36:49.723Z,101029.22
2023-02-18T22:39:17.745Z,101025.72
2023-02-18T22:41:45.417Z,101028.38
2023-02-18T22:44:15.840Z,101016.06
2023-02-18T22:46:45.774Z,101004.44
2023-02-18T22:49:15.922Z,101015.91
2023-02-18T22:51:44.898Z,101012.41
2023-02-18T22:54:15.890Z,101006.25
2023-02-18T22:56:44.030Z,101000.09
2023-02-18T22:59:12.398Z,100968.22
2023-02-18T23:01:41.858Z,100967.38
2023-02-18T23:04:12.522Z,100984.16
2023-02-18T23:06:42.645Z,100990.47
2023-02-18T23:09:13.813Z,100986.81
2023-02-18T23:11:41.897Z,100986.97
2023-02-18T23:14:19.390Z,100982.47
2023-02-18T23:17:06.148Z,100952.66
2023-02-18T23:19:37.261Z,100963.41
2023-02-18T23:22:05.825Z,100970.28
2023-02-18T23:24:38.102Z,100969.44
2023-02-18T23:27:06.663Z,100970.41
2023-02-18T23:29:34.376Z,100960.63
2023-02-18T23:32:02.345Z,100952.66
2023-02-18T23:34:30.124Z,100946.34
2023-02-18T23:36:59.934Z,100961.47
2023-02-18T23:39:29.367Z,100960.47
2023-02-18T23:41:57.592Z,100961.47
2023-02-18T23:44:26.980Z,100957.13
2023-02-18T23:46:54.628Z,100945.50
2023-02-18T23:49:24.514Z,100946.13
2023-02-18T23:51:53.535Z,100950.59
2023-02-18T23:54:24.425Z,100945.28
2023-02-18T23:56:52.094Z,100945.28
2023-02-18T23:59:20.093Z,100940.66
